Time;durP1;ratioP1;P1;durP2;ratioP2;P2;SDS_P1;SDS_P2;PMS_P1;PMS_P2;Temp;Humidity;BMP_temperature;BMP_pressure;BME280_temperature;BME280_humidity;BME280_pressure;Samples;Min_cycle;Max_cycle;Signal;HPM_P1;HPM_P2
2023/09/17 00:04:42;;;;;;;8.60;5.70;;;;;;;;;;10412518;28;20490;-75
2023/09/17 00:09:42;;;;;;;10.03;5.37;;;;;;;;;;10412149;28;20108;-75
2023/09/17 00:14:43;;;;;;;14.27;7.60;;;;;;;;;;10427171;28;20080;-76
2023/09/17 00:19:44;;;;;;;11.98;6.63;;;;;;;;;;10432636;28;20040;-75
2023/09/17 00:24:45;;;;;;;15.93;7.55;;;;;;;;;;10413319;28;20025;-77
2023/09/17 00:29:45;;;;;;;10.80;6.77;;;;;;;;;;10417237;28;20016;-79
2023/09/17 00:34:45;;;;;;;15.35;8.68;;;;;;;;;;10414692;28;20023;-77
2023/09/17 00:39:46;;;;;;;12.40;8.30;;;;;;;;;;10414501;28;20087;-72
2023/09/17 00:44:46;;;;;;;15.90;9.65;;;;;;;;;;10396737;28;20108;-76
2023/09/17 00:49:46;;;;;;;16.80;10.15;;;;;;;;;;10407330;28;20051;-78
2023/09/17 00:54:48;;;;;;;16.90;11.25;;;;;;;;;;10410197;28;20054;-73
2023/09/17 00:59:48;;;;;;;18.65;12.27;;;;;;;;;;10417126;28;20036;-80
2023/09/17 01:04:50;;;;;;;19.43;11.53;;;;;;;;;;10424291;28;20039;-76
2023/09/17 01:09:50;;;;;;;18.80;12.07;;;;;;;;;;10402274;28;20005;-76
2023/09/17 01:14:52;;;;;;;24.63;14.00;;;;;;;;;;10415058;28;20094;-72
2023/09/17 01:19:53;;;;;;;21.00;12.77;;;;;;;;;;10403213;28;20021;-72
2023/09/17 01:25:05;;;;;;;23.30;14.07;;;;;;;;;;10405782;28;20027;-75
2023/09/17 01:30:15;;;;;;;22.90;14.75;;;;;;;;;;10406547;28;20452;-83
2023/09/17 01:35:16;;;;;;;23.48;14.52;;;;;;;;;;10401899;28;20017;-73
2023/09/17 01:40:17;;;;;;;21.60;13.73;;;;;;;;;;10400571;28;20017;-72
2023/09/17 01:45:18;;;;;;;22.42;14.68;;;;;;;;;;10407211;28;20018;-75
2023/09/17 01:50:25;;;;;;;20.95;13.77;;;;;;;;;;10412043;28;20417;-82
2023/09/17 01:55:29;;;;;;;25.90;15.50;;;;;;;;;;10431958;28;20021;-74
2023/09/17 02:00:29;;;;;;;26.63;15.10;;;;;;;;;;10410587;28;20150;-73
2023/09/17 02:05:29;;;;;;;24.42;14.52;;;;;;;;;;10408951;28;20024;-76
2023/09/17 02:10:31;;;;;;;33.88;16.88;;;;;;;;;;10426804;28;20436;-80
2023/09/17 02:15:31;;;;;;;28.75;16.48;;;;;;;;;;10393762;28;20517;-73
2023/09/17 02:20:36;;;;;;;32.90;16.63;;;;;;;;;;10408090;28;20041;-74
2023/09/17 02:25:37;;;;;;;30.63;18.13;;;;;;;;;;10422309;28;20122;-82
2023/09/17 02:30:37;;;;;;;30.73;17.52;;;;;;;;;;10414723;28;20029;-76
2023/09/17 02:35:37;;;;;;;30.10;16.27;;;;;;;;;;10411199;28;20033;-71
2023/09/17 02:40:38;;;;;;;28.00;16.15;;;;;;;;;;10410312;28;20076;-81
2023/09/17 02:45:38;;;;;;;31.73;17.08;;;;;;;;;;10415147;28;20025;-81
2023/09/17 02:50:39;;;;;;;25.77;16.33;;;;;;;;;;10415223;28;20094;-72
2023/09/17 02:55:39;;;;;;;30.38;17.33;;;;;;;;;;10407007;28;20075;-80
2023/09/17 03:00:43;;;;;;;28.33;16.13;;;;;;;;;;10389744;28;20060;-75
2023/09/17 03:05:49;;;;;;;26.13;15.55;;;;;;;;;;10405005;28;20078;-77
2023/09/17 03:10:59;;;;;;;35.60;17.33;;;;;;;;;;10419615;28;20116;-75
2023/09/17 03:16:03;;;;;;;32.08;16.90;;;;;;;;;;10419875;28;20048;-82
2023/09/17 03:21:06;;;;;;;33.00;15.52;;;;;;;;;;10396286;28;20707;-80
2023/09/17 03:26:08;;;;;;;28.67;17.30;;;;;;;;;;10410967;28;20051;-80
2023/09/17 03:31:08;;;;;;;29.55;16.50;;;;;;;;;;10390572;28;20018;-72
2023/09/17 03:36:08;;;;;;;30.75;16.83;;;;;;;;;;10420867;28;20581;-75
2023/09/17 03:41:09;;;;;;;30.67;17.48;;;;;;;;;;10403016;28;20020;-73
2023/09/17 03:46:09;;;;;;;26.77;15.83;;;;;;;;;;10407080;28;20747;-76
2023/09/17 03:51:11;;;;;;;33.25;19.00;;;;;;;;;;10432244;28;20090;-79
2023/09/17 03:56:12;;;;;;;32.63;19.40;;;;;;;;;;10441756;28;20528;-78
2023/09/17 04:01:18;;;;;;;32.53;18.92;;;;;;;;;;10428592;28;20021;-79
2023/09/17 04:06:19;;;;;;;35.13;19.77;;;;;;;;;;10428218;28;20028;-78
2023/09/17 04:11:19;;;;;;;34.80;19.55;;;;;;;;;;10414181;28;20037;-80
2023/09/17 04:16:23;;;;;;;33.65;18.80;;;;;;;;;;10435183;28;20053;-83
2023/09/17 04:21:23;;;;;;;34.72;16.40;;;;;;;;;;10422483;28;20030;-83
2023/09/17 04:26:25;;;;;;;26.80;15.13;;;;;;;;;;10418039;28;20054;-82
2023/09/17 04:31:25;;;;;;;32.85;16.38;;;;;;;;;;10409594;28;20056;-74
2023/09/17 04:36:25;;;;;;;33.95;16.85;;;;;;;;;;10410213;28;20104;-84
2023/09/17 04:41:26;;;;;;;28.92;15.65;;;;;;;;;;10404613;28;20044;-80
2023/09/17 04:46:27;;;;;;;32.03;16.30;;;;;;;;;;10398311;28;20039;-76
2023/09/17 04:51:28;;;;;;;36.63;16.90;;;;;;;;;;10416182;28;20279;-78
2023/09/17 04:56:28;;;;;;;28.50;16.55;;;;;;;;;;10425830;28;20028;-83
2023/09/17 05:01:30;;;;;;;36.85;16.45;;;;;;;;;;10422920;28;20531;-81
2023/09/17 05:06:31;;;;;;;29.98;16.30;;;;;;;;;;10444984;28;20021;-80
2023/09/17 05:11:31;;;;;;;27.37;16.37;;;;;;;;;;10427240;28;20489;-81
2023/09/17 05:16:39;;;;;;;34.00;17.05;;;;;;;;;;10426151;28;20436;-77
2023/09/17 05:21:41;;;;;;;32.58;17.95;;;;;;;;;;10442524;28;20056;-85
2023/09/17 05:26:46;;;;;;;31.42;17.50;;;;;;;;;;10427075;28;20049;-84
2023/09/17 05:31:46;;;;;;;31.35;19.73;;;;;;;;;;10430935;28;20031;-82
2023/09/17 05:36:48;;;;;;;37.15;20.42;;;;;;;;;;10431125;28;20128;-80
2023/09/17 05:41:55;;;;;;;35.72;19.58;;;;;;;;;;10405874;28;20405;-82
2023/09/17 05:46:56;;;;;;;36.50;19.13;;;;;;;;;;10419996;28;20064;-78
2023/09/17 05:51:56;;;;;;;35.10;19.30;;;;;;;;;;10410734;28;20024;-81
2023/09/17 05:56:58;;;;;;;31.75;17.90;;;;;;;;;;10387142;28;20021;-78
2023/09/17 06:01:59;;;;;;;32.75;18.40;;;;;;;;;;10412702;28;20025;-84
2023/09/17 06:06:59;;;;;;;34.42;19.55;;;;;;;;;;10395631;28;20025;-77
2023/09/17 06:12:00;;;;;;;36.13;18.90;;;;;;;;;;10404431;28;20117;-76
2023/09/17 06:17:02;;;;;;;32.90;17.17;;;;;;;;;;10408378;28;20061;-77
2023/09/17 06:22:02;;;;;;;37.40;19.38;;;;;;;;;;10410825;28;20033;-79
2023/09/17 06:27:03;;;;;;;34.43;19.10;;;;;;;;;;10409234;28;20067;-73
2023/09/17 06:32:05;;;;;;;34.13;18.45;;;;;;;;;;10394267;28;20070;-75
2023/09/17 06:37:11;;;;;;;33.97;18.00;;;;;;;;;;10427550;28;20044;-73
2023/09/17 06:42:19;;;;;;;37.42;19.17;;;;;;;;;;10446100;28;20029;-79
2023/09/17 06:47:21;;;;;;;32.00;17.30;;;;;;;;;;10409406;28;20020;-78
2023/09/17 06:52:23;;;;;;;31.83;16.17;;;;;;;;;;10406952;28;20268;-82
2023/09/17 06:57:23;;;;;;;34.25;16.23;;;;;;;;;;10412965;28;20591;-78
2023/09/17 07:02:25;;;;;;;36.77;17.27;;;;;;;;;;10415123;28;20064;-81
2023/09/17 07:07:27;;;;;;;31.25;16.00;;;;;;;;;;10423873;28;20033;-77
2023/09/17 07:12:27;;;;;;;38.03;17.77;;;;;;;;;;10408075;28;20607;-79
2023/09/17 07:17:27;;;;;;;33.88;16.85;;;;;;;;;;10408273;28;20056;-81
2023/09/17 07:22:28;;;;;;;32.67;17.30;;;;;;;;;;10405546;28;20134;-79
2023/09/17 07:27:29;;;;;;;30.35;17.00;;;;;;;;;;10412625;28;20080;-79
2023/09/17 07:32:32;;;;;;;38.88;18.38;;;;;;;;;;10427196;28;20036;-78
2023/09/17 07:37:33;;;;;;;31.10;16.52;;;;;;;;;;10418990;28;20036;-82
2023/09/17 07:42:33;;;;;;;22.00;14.25;;;;;;;;;;10416202;28;20534;-76
2023/09/17 07:47:36;;;;;;;29.75;13.93;;;;;;;;;;10426883;28;20489;-76
2023/09/17 07:52:38;;;;;;;23.23;13.85;;;;;;;;;;10413994;28;20185;-83
2023/09/17 07:57:49;;;;;;;28.08;15.73;;;;;;;;;;10423414;28;20131;-82
2023/09/17 08:03:06;;;;;;;24.00;14.90;;;;;;;;;;10418979;28;20072;-77
2023/09/17 08:08:07;;;;;;;27.35;15.70;;;;;;;;;;10393819;28;20033;-80
2023/09/17 08:13:14;;;;;;;31.33;16.02;;;;;;;;;;10407465;28;20622;-87
2023/09/17 08:18:15;;;;;;;29.75;16.85;;;;;;;;;;10360298;28;20487;-81
2023/09/17 08:23:15;;;;;;;24.50;14.85;;;;;;;;;;10359860;28;20036;-83
2023/09/17 08:28:17;;;;;;;25.30;14.25;;;;;;;;;;10345719;28;20625;-77
2023/09/17 08:33:17;;;;;;;24.23;13.30;;;;;;;;;;10363234;28;20217;-78
2023/09/17 08:38:29;;;;;;;25.40;15.20;;;;;;;;;;10358676;28;20124;-80
2023/09/17 08:43:31;;;;;;;25.30;14.70;;;;;;;;;;10351177;28;20041;-81
2023/09/17 08:48:34;;;;;;;28.08;14.05;;;;;;;;;;10367754;28;20040;-80
2023/09/17 08:53:43;;;;;;;28.50;14.85;;;;;;;;;;10364092;28;20030;-74
2023/09/17 08:58:55;;;;;;;26.15;14.85;;;;;;;;;;10363457;28;20029;-85
2023/09/17 09:03:56;;;;;;;28.92;15.02;;;;;;;;;;10377379;28;20076;-79
2023/09/17 09:08:58;;;;;;;25.73;13.63;;;;;;;;;;10340920;28;20474;-81
2023/09/17 09:14:00;;;;;;;30.58;15.70;;;;;;;;;;10362420;28;20045;-70
2023/09/17 09:19:01;;;;;;;24.42;13.70;;;;;;;;;;10335578;28;20072;-77
2023/09/17 09:24:01;;;;;;;21.38;11.98;;;;;;;;;;10355792;28;20541;-77
2023/09/17 09:29:12;;;;;;;25.27;14.50;;;;;;;;;;10350206;28;20087;-71
2023/09/17 09:34:18;;;;;;;24.52;13.45;;;;;;;;;;10359914;28;20038;-73
2023/09/17 09:39:21;;;;;;;23.13;13.07;;;;;;;;;;10358997;28;20101;-73
2023/09/17 09:44:24;;;;;;;19.17;11.85;;;;;;;;;;10354493;28;20081;-78
2023/09/17 09:49:25;;;;;;;20.65;12.20;;;;;;;;;;10359590;28;20022;-83
2023/09/17 09:54:28;;;;;;;17.95;11.02;;;;;;;;;;10367714;28;20085;-83
2023/09/17 09:59:46;;;;;;;18.27;11.55;;;;;;;;;;10367657;28;20030;-72
2023/09/17 10:04:54;;;;;;;24.52;12.32;;;;;;;;;;10368961;28;20038;-70
2023/09/17 10:09:54;;;;;;;24.80;11.30;;;;;;;;;;10383602;28;20709;-72
2023/09/17 10:14:55;;;;;;;24.67;13.15;;;;;;;;;;10382506;28;20034;-73
2023/09/17 10:20:22;;;;;;;22.80;13.05;;;;;;;;;;10371159;28;20038;-79
2023/09/17 10:25:23;;;;;;;29.25;14.63;;;;;;;;;;10349067;28;20033;-71
2023/09/17 10:30:25;;;;;;;24.88;14.88;;;;;;;;;;10357633;28;20497;-75
2023/09/17 10:35:28;;;;;;;28.67;14.57;;;;;;;;;;10326748;28;20036;-71
2023/09/17 10:40:30;;;;;;;28.42;13.95;;;;;;;;;;10319718;28;20115;-81
2023/09/17 10:45:38;;;;;;;24.25;14.60;;;;;;;;;;10316258;28;20034;-80
2023/09/17 10:50:38;;;;;;;26.20;15.15;;;;;;;;;;10355713;28;20075;-79
2023/09/17 10:55:41;;;;;;;21.97;12.37;;;;;;;;;;10333240;28;20111;-85
2023/09/17 11:00:42;;;;;;;21.95;13.48;;;;;;;;;;10342030;28;20804;-78
2023/09/17 11:05:43;;;;;;;20.92;13.18;;;;;;;;;;10331623;28;20478;-80
2023/09/17 11:10:44;;;;;;;23.02;14.05;;;;;;;;;;10334522;28;20091;-80
2023/09/17 11:15:44;;;;;;;29.20;15.98;;;;;;;;;;10358033;28;20038;-80
2023/09/17 11:21:00;;;;;;;23.20;13.77;;;;;;;;;;10388955;28;20029;-81
2023/09/17 11:26:04;;;;;;;31.45;13.82;;;;;;;;;;10395679;28;20055;-85
2023/09/17 11:31:14;;;;;;;25.95;14.25;;;;;;;;;;10387614;28;20028;-84
2023/09/17 11:36:15;;;;;;;20.23;12.27;;;;;;;;;;10366060;28;20026;-81
2023/09/17 11:41:18;;;;;;;24.58;13.45;;;;;;;;;;10372350;28;20017;-82
2023/09/17 11:46:20;;;;;;;23.33;13.25;;;;;;;;;;10374154;28;20030;-79
2023/09/17 11:51:20;;;;;;;27.57;14.33;;;;;;;;;;10384730;28;20108;-83
2023/09/17 11:56:27;;;;;;;25.30;14.63;;;;;;;;;;10377675;28;20159;-74
2023/09/17 12:01:33;;;;;;;21.67;14.35;;;;;;;;;;10382734;28;20060;-82
2023/09/17 12:06:37;;;;;;;26.92;14.00;;;;;;;;;;10392700;28;20041;-82
2023/09/17 12:11:47;;;;;;;26.67;14.88;;;;;;;;;;10381109;28;20507;-85
2023/09/17 12:17:07;;;;;;;24.63;14.40;;;;;;;;;;10364590;28;20510;-71
2023/09/17 12:22:08;;;;;;;27.80;15.43;;;;;;;;;;10341263;28;20057;-79
2023/09/17 12:27:36;;;;;;;25.42;14.30;;;;;;;;;;10339539;28;20030;-85
2023/09/17 12:32:36;;;;;;;28.90;16.80;;;;;;;;;;10381570;28;20037;-81
2023/09/17 12:37:37;;;;;;;23.47;13.50;;;;;;;;;;10331607;28;20052;-76
2023/09/17 12:42:40;;;;;;;23.17;14.30;;;;;;;;;;10379023;28;20030;-89
2023/09/17 12:47:41;;;;;;;25.05;13.73;;;;;;;;;;10328765;28;20013;-79
2023/09/17 12:52:48;;;;;;;24.00;13.80;;;;;;;;;;10343285;28;20647;-78
2023/09/17 12:57:50;;;;;;;;;;;;;;;;;;10349107;28;20123;-76
2023/09/17 13:02:53;;;;;;;21.70;13.20;;;;;;;;;;10344213;28;19913;-80
2023/09/17 13:08:01;;;;;;;24.33;13.50;;;;;;;;;;10334313;28;20403;-81
2023/09/17 13:13:05;;;;;;;26.27;12.10;;;;;;;;;;10362859;28;20049;-72
2023/09/17 13:18:06;;;;;;;21.02;11.88;;;;;;;;;;10363306;28;20073;-82
2023/09/17 13:23:06;;;;;;;18.10;11.18;;;;;;;;;;10396454;28;20037;-82
2023/09/17 13:28:15;;;;;;;22.40;13.17;;;;;;;;;;10398758;28;20401;-78
2023/09/17 13:33:16;;;;;;;16.48;10.10;;;;;;;;;;10403358;28;20032;-78
2023/09/17 13:38:17;;;;;;;24.08;12.07;;;;;;;;;;10374697;28;20041;-78
2023/09/17 13:43:19;;;;;;;18.40;11.10;;;;;;;;;;10382100;28;20116;-82
2023/09/17 13:48:42;;;;;;;16.02;9.00;;;;;;;;;;10403271;28;20120;-73
2023/09/17 13:53:44;;;;;;;10.60;6.80;;;;;;;;;;10412183;28;20124;-83
2023/09/17 13:58:44;;;;;;;11.23;6.03;;;;;;;;;;10409187;28;20121;-82
2023/09/17 14:04:06;;;;;;;10.00;5.13;;;;;;;;;;10403926;28;20053;-74
2023/09/17 14:09:06;;;;;;;12.68;5.65;;;;;;;;;;10423499;28;20058;-71
2023/09/17 14:14:10;;;;;;;13.60;6.25;;;;;;;;;;10401026;28;20033;-76
2023/09/17 14:19:17;;;;;;;14.93;6.63;;;;;;;;;;10413584;28;20053;-77
2023/09/17 14:24:17;;;;;;;9.25;5.75;;;;;;;;;;10403677;28;20096;-77
2023/09/17 14:29:19;;;;;;;8.88;5.10;;;;;;;;;;10413503;28;20071;-71
2023/09/17 14:34:19;;;;;;;15.20;5.88;;;;;;;;;;10420213;28;20056;-77
2023/09/17 14:39:19;;;;;;;8.52;5.53;;;;;;;;;;10406440;28;20068;-75
2023/09/17 14:44:20;;;;;;;13.53;7.03;;;;;;;;;;10392415;28;20033;-72
2023/09/17 14:49:20;;;;;;;10.55;7.13;;;;;;;;;;10387417;28;20471;-77
2023/09/17 14:54:26;;;;;;;11.55;6.93;;;;;;;;;;10387381;28;20034;-82
2023/09/17 14:59:28;;;;;;;10.18;6.63;;;;;;;;;;10385749;28;20037;-75
2023/09/17 15:04:28;;;;;;;12.88;7.20;;;;;;;;;;10389215;28;20040;-77
2023/09/17 15:09:29;;;;;;;12.10;7.17;;;;;;;;;;10389905;28;20807;-76
2023/09/17 15:14:30;;;;;;;12.65;8.07;;;;;;;;;;10381788;28;20279;-84
2023/09/17 15:19:31;;;;;;;13.85;7.53;;;;;;;;;;10422451;28;20063;-81
2023/09/17 15:24:31;;;;;;;14.80;7.07;;;;;;;;;;10408856;28;20236;-82
2023/09/17 15:35:14;;;;;;;13.40;7.60;;;;;;;;;;10449324;28;20112;-74
2023/09/17 15:40:15;;;;;;;11.15;7.03;;;;;;;;;;10423896;28;20013;-80
2023/09/17 15:45:16;;;;;;;14.98;9.10;;;;;;;;;;10416167;28;20508;-83
2023/09/17 15:50:17;;;;;;;13.35;8.35;;;;;;;;;;10416546;28;20532;-81
2023/09/17 15:55:17;;;;;;;13.33;8.60;;;;;;;;;;10417008;28;20025;-83
2023/09/17 16:00:17;;;;;;;12.70;8.70;;;;;;;;;;10412283;28;20690;-79
2023/09/17 16:05:20;;;;;;;16.23;9.20;;;;;;;;;;10415630;28;20302;-78
2023/09/17 16:10:22;;;;;;;13.65;7.22;;;;;;;;;;10401471;28;20078;-81
2023/09/17 16:15:23;;;;;;;12.23;7.40;;;;;;;;;;10429873;28;20045;-79
2023/09/17 16:20:25;;;;;;;17.90;8.10;;;;;;;;;;10417291;28;20032;-81
2023/09/17 16:25:25;;;;;;;14.32;7.55;;;;;;;;;;10417400;28;20547;-79
2023/09/17 16:30:39;;;;;;;10.43;6.27;;;;;;;;;;10406704;28;20506;-81
2023/09/17 16:35:40;;;;;;;14.27;7.88;;;;;;;;;;10439263;28;20118;-76
2023/09/17 16:40:43;;;;;;;848.92;779.25;;;;;;;;;;10418234;28;20063;-72
2023/09/17 16:45:43;;;;;;;704.45;637.28;;;;;;;;;;10422067;28;20025;-77
2023/09/17 16:50:44;;;;;;;9.53;6.20;;;;;;;;;;10417023;28;20021;-80
2023/09/17 16:55:44;;;;;;;12.23;6.80;;;;;;;;;;10436322;28;20283;-72
2023/09/17 17:00:48;;;;;;;10.38;7.20;;;;;;;;;;10448356;28;20111;-78
2023/09/17 17:06:29;;;;;;;12.02;6.72;;;;;;;;;;10453677;28;20085;-72
2023/09/17 17:11:33;;;;;;;14.68;8.13;;;;;;;;;;10448691;28;20105;-73
2023/09/17 17:17:08;;;;;;;14.95;7.95;;;;;;;;;;10436036;28;20072;-78
2023/09/17 17:22:09;;;;;;;10.50;7.38;;;;;;;;;;10437643;28;20037;-76
2023/09/17 17:27:28;;;;;;;14.10;7.47;;;;;;;;;;10442577;28;20108;-74
2023/09/17 17:32:30;;;;;;;11.00;7.13;;;;;;;;;;10438765;28;20033;-79
2023/09/17 17:37:30;;;;;;;14.77;7.25;;;;;;;;;;10440886;28;20091;-72
2023/09/17 17:42:30;;;;;;;19.25;7.80;;;;;;;;;;10434336;28;20024;-82
2023/09/17 17:47:33;;;;;;;12.70;7.60;;;;;;;;;;10446489;28;20025;-74
2023/09/17 17:52:34;;;;;;;13.88;8.20;;;;;;;;;;10442231;28;20063;-78
2023/09/17 17:57:34;;;;;;;13.38;8.55;;;;;;;;;;10420360;28;20023;-82
2023/09/17 18:02:39;;;;;;;16.60;8.50;;;;;;;;;;10429435;28;20025;-79
2023/09/17 18:07:40;;;;;;;15.55;8.85;;;;;;;;;;10428435;28;20112;-77
2023/09/17 18:12:41;;;;;;;20.17;8.70;;;;;;;;;;10424786;28;20009;-80
2023/09/17 18:17:42;;;;;;;14.32;8.80;;;;;;;;;;10433276;28;20044;-83
2023/09/17 18:23:11;;;;;;;12.80;8.98;;;;;;;;;;10447103;28;20071;-74
2023/09/17 18:28:13;;;;;;;12.73;7.47;;;;;;;;;;10450866;28;20441;-86
2023/09/17 18:33:13;;;;;;;13.20;8.15;;;;;;;;;;10431051;28;20104;-78
2023/09/17 18:38:23;;;;;;;12.27;7.65;;;;;;;;;;10418223;28;20025;-85
2023/09/17 18:43:46;;;;;;;13.18;8.13;;;;;;;;;;10440002;28;20036;-74
2023/09/17 18:48:47;;;;;;;17.00;7.90;;;;;;;;;;10431637;28;20507;-78
2023/09/17 18:53:47;;;;;;;17.20;8.35;;;;;;;;;;10413155;28;20017;-82
2023/09/17 18:58:48;;;;;;;12.53;8.30;;;;;;;;;;10405430;28;20039;-80
2023/09/17 19:03:49;;;;;;;15.45;8.70;;;;;;;;;;10422868;28;20404;-80
2023/09/17 19:08:50;;;;;;;18.33;8.60;;;;;;;;;;10435358;28;20021;-77
2023/09/17 19:13:50;;;;;;;14.30;8.52;;;;;;;;;;10431417;28;20021;-80
2023/09/17 19:18:51;;;;;;;15.38;8.73;;;;;;;;;;10413276;28;20045;-79
2023/09/17 19:23:53;;;;;;;33.17;13.25;;;;;;;;;;10431159;28;20469;-80
2023/09/17 19:28:53;;;;;;;532.33;496.17;;;;;;;;;;10432895;28;20017;-79
2023/09/17 19:33:54;;;;;;;844.47;774.55;;;;;;;;;;10430314;28;20515;-78
2023/09/17 19:38:56;;;;;;;21.88;10.48;;;;;;;;;;10410768;28;20038;-80
2023/09/17 19:43:58;;;;;;;17.52;9.82;;;;;;;;;;10447206;28;20036;-72
2023/09/17 19:48:58;;;;;;;16.58;9.38;;;;;;;;;;10433211;28;20029;-78
2023/09/17 19:53:59;;;;;;;16.80;9.68;;;;;;;;;;10412659;28;20024;-78
2023/09/17 19:59:00;;;;;;;30.50;10.10;;;;;;;;;;10450733;28;20029;-79
2023/09/17 20:04:01;;;;;;;13.52;9.10;;;;;;;;;;10457733;28;20044;-79
2023/09/17 20:09:02;;;;;;;20.02;11.32;;;;;;;;;;10436489;28;20028;-82
2023/09/17 20:14:03;;;;;;;19.48;10.35;;;;;;;;;;10427118;28;20057;-77
2023/09/17 20:19:04;;;;;;;15.95;10.10;;;;;;;;;;10386356;28;20049;-82
2023/09/17 20:24:06;;;;;;;23.40;14.05;;;;;;;;;;10396700;28;20029;-85
2023/09/17 20:29:07;;;;;;;18.77;10.73;;;;;;;;;;10412315;28;20025;-80
2023/09/17 20:34:08;;;;;;;23.92;11.25;;;;;;;;;;10442545;28;20477;-71
2023/09/17 20:39:09;;;;;;;18.98;12.63;;;;;;;;;;10475455;28;20059;-72
2023/09/17 20:44:11;;;;;;;19.95;11.80;;;;;;;;;;10466056;28;20090;-75
2023/09/17 20:49:11;;;;;;;22.20;12.43;;;;;;;;;;10445946;28;20112;-76
2023/09/17 20:54:16;;;;;;;23.20;12.40;;;;;;;;;;10456073;28;20036;-72
2023/09/17 20:59:16;;;;;;;17.15;10.75;;;;;;;;;;10454935;28;20032;-84
2023/09/17 21:04:21;;;;;;;22.38;11.85;;;;;;;;;;10433776;28;20029;-84
2023/09/17 21:09:25;;;;;;;25.25;11.15;;;;;;;;;;10429289;28;20025;-82
2023/09/17 21:14:26;;;;;;;18.08;11.10;;;;;;;;;;10435275;28;20039;-76
2023/09/17 21:19:29;;;;;;;17.20;11.60;;;;;;;;;;10421557;28;20125;-83
2023/09/17 21:24:30;;;;;;;24.45;11.60;;;;;;;;;;10431929;28;20033;-82
2023/09/17 21:29:30;;;;;;;23.73;12.45;;;;;;;;;;10448083;28;20017;-75
2023/09/17 21:40:14;;;;;;;20.48;12.30;;;;;;;;;;10457926;28;20033;-76
2023/09/17 21:45:16;;;;;;;19.60;12.73;;;;;;;;;;10437014;28;20053;-80
2023/09/17 21:50:18;;;;;;;28.65;13.80;;;;;;;;;;10464452;28;20025;-77
2023/09/17 21:55:18;;;;;;;21.17;11.48;;;;;;;;;;10431292;28;20021;-81
2023/09/17 22:00:25;;;;;;;19.30;13.02;;;;;;;;;;10435003;28;20040;-83
2023/09/17 22:05:25;;;;;;;211.25;197.50;;;;;;;;;;10443726;28;20028;-84
2023/09/17 22:10:25;;;;;;;76.72;70.85;;;;;;;;;;10443640;28;20021;-72
2023/09/17 22:15:26;;;;;;;676.13;610.10;;;;;;;;;;10440790;28;20028;-83
2023/09/17 22:20:29;;;;;;;20.13;12.32;;;;;;;;;;10455833;28;20178;-73
2023/09/17 22:25:35;;;;;;;23.73;13.80;;;;;;;;;;10460108;28;20033;-73
2023/09/17 22:30:36;;;;;;;20.70;11.52;;;;;;;;;;10425069;28;20013;-81
2023/09/17 22:35:36;;;;;;;28.85;16.13;;;;;;;;;;10439763;28;20025;-77
2023/09/17 22:40:40;;;;;;;20.02;12.70;;;;;;;;;;10456134;28;20067;-78
2023/09/17 22:45:42;;;;;;;28.67;13.25;;;;;;;;;;10445320;28;20409;-83
2023/09/17 22:50:43;;;;;;;28.50;13.27;;;;;;;;;;10440354;28;20028;-82
2023/09/17 22:55:48;;;;;;;24.75;14.25;;;;;;;;;;10443487;28;20067;-77
2023/09/17 23:00:48;;;;;;;24.98;13.73;;;;;;;;;;10433271;28;20029;-81
2023/09/17 23:05:51;;;;;;;30.30;13.07;;;;;;;;;;10420643;28;20025;-72
2023/09/17 23:11:03;;;;;;;38.35;32.63;;;;;;;;;;10444044;28;20619;-78
2023/09/17 23:16:04;;;;;;;926.22;837.83;;;;;;;;;;10456676;28;20044;-76
2023/09/17 23:21:06;;;;;;;624.92;563.30;;;;;;;;;;10450913;28;20049;-71
2023/09/17 23:26:06;;;;;;;21.08;11.63;;;;;;;;;;10445243;28;20032;-71
2023/09/17 23:31:09;;;;;;;31.93;23.83;;;;;;;;;;10436931;28;20040;-79
2023/09/17 23:36:11;;;;;;;726.72;672.95;;;;;;;;;;10449051;28;20029;-77
2023/09/17 23:41:11;;;;;;;891.00;820.55;;;;;;;;;;10412276;28;20072;-81
2023/09/17 23:46:12;;;;;;;922.97;835.55;;;;;;;;;;10406434;28;20029;-80
2023/09/17 23:51:13;;;;;;;125.72;115.78;;;;;;;;;;10453148;28;20646;-82
2023/09/17 23:56:14;;;;;;;24.27;13.70;;;;;;;;;;10451174;28;20493;-82
